createdAt,value
2022-09-10T00:01:39.882Z,71.98
2022-09-10T00:03:41.721Z,72.06
2022-09-10T00:05:44.888Z,71.97
2022-09-10T00:07:46.466Z,71.65
2022-09-10T00:09:48.028Z,72.25
2022-09-10T00:11:49.850Z,71.70
2022-09-10T00:13:51.443Z,71.54
2022-09-10T00:15:54.547Z,71.13
2022-09-10T00:17:56.116Z,71.23
2022-09-10T00:19:57.786Z,71.13
2022-09-10T00:21:59.298Z,70.80
2022-09-10T00:24:02.323Z,70.98
2022-09-10T00:26:10.895Z,70.55
2022-09-10T00:28:12.523Z,70.61
2022-09-10T00:30:14.112Z,70.09
2022-09-10T00:32:17.161Z,70.81
2022-09-10T00:34:18.682Z,69.69
2022-09-10T00:36:22.918Z,69.62
2022-09-10T00:38:24.903Z,70.00
2022-09-10T00:40:26.464Z,70.06
2022-09-10T00:42:27.947Z,70.38
2022-09-10T00:44:56.472Z,69.64
2022-09-10T00:46:58.037Z,69.37
2022-09-10T00:49:02.924Z,69.63
2022-09-10T00:51:05.890Z,70.11
2022-09-10T00:53:12.350Z,69.35
2022-09-10T00:55:14.741Z,70.12
2022-09-10T00:57:20.123Z,69.77
2022-09-10T00:59:25.148Z,70.03
2022-09-10T01:01:26.627Z,70.06
2022-09-10T01:03:29.279Z,69.92
2022-09-10T01:05:32.854Z,69.53
2022-09-10T01:07:34.932Z,69.86
2022-09-10T01:09:39.452Z,69.89
2022-09-10T01:11:54.567Z,70.03
2022-09-10T01:14:12.303Z,69.66
2022-09-10T01:16:21.730Z,69.80
2022-09-10T01:18:33.254Z,69.62
2022-09-10T01:20:51.107Z,69.47
2022-09-10T01:23:34.375Z,68.93
2022-09-10T01:25:43.145Z,69.19
2022-09-10T01:27:49.758Z,69.03
2022-09-10T01:29:55.294Z,69.33
2022-09-10T01:32:04.367Z,69.07
2022-09-10T01:34:13.426Z,69.38
2022-09-10T01:36:21.164Z,69.59
2022-09-10T01:38:27.175Z,69.43
2022-09-10T01:40:29.163Z,69.49
2022-09-10T01:42:31.593Z,69.74
2022-09-10T01:44:45.676Z,69.29
2022-09-10T01:46:58.864Z,69.32
2022-09-10T01:49:11.585Z,69.16
2022-09-10T01:51:23.613Z,69.37
2022-09-10T01:53:44.257Z,69.82
2022-09-10T01:55:52.109Z,69.45
2022-09-10T01:57:59.732Z,69.77
2022-09-10T02:00:07.809Z,69.82
2022-09-10T02:02:17.399Z,69.66
2022-09-10T02:04:21.378Z,69.61
2022-09-10T02:06:26.084Z,70.16
2022-09-10T02:08:31.429Z,70.26
2022-09-10T02:10:32.996Z,70.07
2022-09-10T02:12:35.372Z,69.63
2022-09-10T02:14:36.923Z,69.73
2022-09-10T02:16:45.987Z,70.30
2022-09-10T02:18:47.811Z,70.38
2022-09-10T02:20:52.075Z,70.82
2022-09-10T02:22:58.364Z,70.44
2022-09-10T02:24:59.894Z,70.16
2022-09-10T02:27:01.472Z,70.44
2022-09-10T02:29:03.166Z,70.08
2022-09-10T02:31:04.793Z,69.74
2022-09-10T02:33:09.667Z,70.10
2022-09-10T02:35:11.214Z,69.91
2022-09-10T02:37:12.708Z,70.11
2022-09-10T02:39:14.389Z,69.99
2022-09-10T02:41:18.650Z,69.98
2022-09-10T02:43:20.092Z,70.12
2022-09-10T02:45:21.618Z,70.48
2022-09-10T02:47:23.117Z,70.45
2022-09-10T02:49:25.933Z,70.15
2022-09-10T02:51:27.415Z,70.37
2022-09-10T02:53:28.899Z,70.26
2022-09-10T02:55:30.548Z,70.06
2022-09-10T02:57:32.102Z,70.47
2022-09-10T02:59:33.738Z,70.37
2022-09-10T03:01:35.313Z,70.05
2022-09-10T03:03:37.213Z,70.20
2022-09-10T03:05:40.518Z,69.99
2022-09-10T03:07:42.281Z,70.13
2022-09-10T03:09:43.824Z,70.20
2022-09-10T03:11:45.432Z,70.11
2022-09-10T03:13:47.037Z,70.50
2022-09-10T03:15:48.517Z,70.09
2022-09-10T03:17:49.926Z,70.33
2022-09-10T03:19:51.588Z,70.42
2022-09-10T03:21:54.466Z,70.28
2022-09-10T03:23:57.069Z,69.82
2022-09-10T03:25:58.798Z,69.96
2022-09-10T03:28:00.325Z,70.32
2022-09-10T03:30:01.958Z,70.26
2022-09-10T03:32:03.498Z,70.17
2022-09-10T03:34:05.345Z,70.17
2022-09-10T03:36:07.359Z,70.46
2022-09-10T03:38:10.246Z,70.24
2022-09-10T03:40:11.780Z,70.56
2022-09-10T03:42:13.249Z,70.82
2022-09-10T03:44:15.014Z,71.75
2022-09-10T03:46:16.512Z,70.58
2022-09-10T03:48:19.455Z,71.33
2022-09-10T03:50:21.026Z,71.09
2022-09-10T03:52:22.472Z,70.58
2022-09-10T03:54:25.318Z,70.52
2022-09-10T03:56:27.677Z,69.97
2022-09-10T03:58:29.210Z,70.47
2022-09-10T04:00:30.705Z,70.08
2022-09-10T04:02:32.173Z,70.43
2022-09-10T04:04:33.753Z,70.26
2022-09-10T04:06:35.376Z,70.09
2022-09-10T04:08:36.878Z,71.09
2022-09-10T04:10:39.896Z,70.49
2022-09-10T04:12:41.350Z,70.81
2022-09-10T04:14:42.841Z,70.76
2022-09-10T04:16:44.412Z,70.99
2022-09-10T04:18:46.111Z,70.30
2022-09-10T04:20:47.635Z,70.82
2022-09-10T04:22:49.589Z,71.17
2022-09-10T04:24:51.091Z,70.63
2022-09-10T04:26:53.879Z,70.65
2022-09-10T04:28:55.632Z,71.06
2022-09-10T04:30:57.106Z,70.85
2022-09-10T04:32:58.565Z,72.71
2022-09-10T04:35:00.079Z,73.91
2022-09-10T04:37:01.563Z,72.76
2022-09-10T04:39:03.112Z,71.69
2022-09-10T04:41:04.682Z,71.78
2022-09-10T04:43:07.513Z,72.59
2022-09-10T04:45:09.701Z,73.03
2022-09-10T04:47:11.356Z,73.26
2022-09-10T04:49:14.872Z,73.35
2022-09-10T04:51:17.561Z,73.78
2022-09-10T04:53:20.194Z,72.97
2022-09-10T04:55:21.737Z,72.71
2022-09-10T04:57:23.733Z,72.87
2022-09-10T04:59:26.736Z,72.49
2022-09-10T05:01:28.306Z,72.53
2022-09-10T05:03:29.895Z,72.26
2022-09-10T05:05:31.729Z,72.96
2022-09-10T05:07:33.210Z,74.34
2022-09-10T05:09:34.645Z,75.95
2022-09-10T05:11:36.182Z,75.82
2022-09-10T05:13:37.666Z,74.70
2022-09-10T05:15:40.564Z,75.73
2022-09-10T05:17:42.048Z,76.49
2022-09-10T05:19:43.734Z,75.40
2022-09-10T05:21:45.226Z,76.12
2022-09-10T05:23:47.194Z,75.48
2022-09-10T05:25:48.723Z,75.12
2022-09-10T05:27:50.620Z,77.01
2022-09-10T05:29:52.193Z,76.60
2022-09-10T05:31:55.108Z,76.49
2022-09-10T05:33:56.751Z,76.73
2022-09-10T05:36:00.785Z,76.80
2022-09-10T05:38:02.254Z,77.26
2022-09-10T05:40:04.917Z,76.93
2022-09-10T05:42:06.554Z,76.75
2022-09-10T05:44:08.042Z,76.75
2022-09-10T05:46:09.524Z,76.91
2022-09-10T05:48:12.534Z,76.82
2022-09-10T05:50:14.189Z,76.77
2022-09-10T05:52:15.991Z,76.53
2022-09-10T05:54:20.320Z,76.64
2022-09-10T05:56:21.802Z,76.40
2022-09-10T05:58:23.332Z,76.47
2022-09-10T06:00:24.883Z,75.96
2022-09-10T06:02:26.627Z,76.66
2022-09-10T06:04:29.539Z,76.35
2022-09-10T06:06:31.293Z,79.54
2022-09-10T06:08:32.977Z,77.97
2022-09-10T06:10:34.751Z,77.47
2022-09-10T06:12:37.667Z,77.64
2022-09-10T06:14:39.103Z,77.62
2022-09-10T06:16:40.812Z,77.24
2022-09-10T06:18:42.695Z,76.79
2022-09-10T06:20:46.437Z,77.90
2022-09-10T06:22:47.889Z,78.04
2022-09-10T06:24:50.691Z,77.62
2022-09-10T06:26:52.189Z,77.50
2022-09-10T06:28:53.663Z,77.81
2022-09-10T06:30:55.487Z,77.12
2022-09-10T06:32:56.958Z,76.12
2022-09-10T06:34:58.446Z,76.94
2022-09-10T06:37:01.272Z,76.95
2022-09-10T06:39:02.821Z,76.36
2022-09-10T06:41:06.170Z,76.68
2022-09-10T06:43:07.746Z,76.68
2022-09-10T06:45:09.929Z,76.51
2022-09-10T06:47:50.938Z,76.45
2022-09-10T06:49:33.015Z,76.71
2022-09-10T06:51:34.484Z,76.13
2022-09-10T06:53:37.596Z,75.34
2022-09-10T06:55:39.350Z,76.30
2022-09-10T06:57:40.846Z,76.93
2022-09-10T06:59:42.515Z,75.67
2022-09-10T07:01:44.346Z,75.96
2022-09-10T07:03:46.813Z,75.16
2022-09-10T07:05:48.719Z,76.31
2022-09-10T07:07:50.214Z,76.20
2022-09-10T07:09:53.090Z,76.39
2022-09-10T07:11:54.611Z,74.90
2022-09-10T07:13:56.152Z,75.25
2022-09-10T07:15:58.236Z,76.12
2022-09-10T07:18:00.194Z,75.50
2022-09-10T07:20:02.146Z,75.08
2022-09-10T07:22:04.009Z,74.60
2022-09-10T07:24:05.785Z,74.57
2022-09-10T07:26:11.096Z,74.54
2022-09-10T07:28:14.633Z,74.82
2022-09-10T07:30:20.098Z,74.32
2022-09-10T07:32:21.640Z,74.49
2022-09-10T07:34:23.214Z,73.89
2022-09-10T07:36:25.304Z,74.46
2022-09-10T07:38:26.937Z,74.60
2022-09-10T07:40:28.386Z,74.60
2022-09-10T07:42:31.576Z,73.92
2022-09-10T07:44:33.173Z,74.33
2022-09-10T07:46:34.724Z,74.85
2022-09-10T07:48:36.271Z,73.98
2022-09-10T07:50:37.793Z,74.26
2022-09-10T07:52:39.307Z,73.46
2022-09-10T07:54:40.831Z,73.98
2022-09-10T07:56:42.380Z,73.37
2022-09-10T07:58:45.241Z,73.78
2022-09-10T08:00:46.717Z,73.97
2022-09-10T08:02:48.360Z,73.37
2022-09-10T08:04:49.846Z,73.36
2022-09-10T08:06:51.361Z,73.69
2022-09-10T08:08:52.962Z,73.36
2022-09-10T08:10:54.467Z,73.98
2022-09-10T08:12:56.007Z,74.29
2022-09-10T08:14:59.048Z,72.82
2022-09-10T08:17:00.725Z,72.86
2022-09-10T08:19:02.304Z,72.80
2022-09-10T08:21:04.836Z,73.34
2022-09-10T08:23:06.929Z,73.04
2022-09-10T08:25:08.709Z,73.13
2022-09-10T08:27:10.294Z,73.20
2022-09-10T08:29:11.779Z,72.61
2022-09-10T08:31:14.801Z,72.68
2022-09-10T08:33:16.375Z,72.68
2022-09-10T08:35:18.101Z,72.44
2022-09-10T08:37:19.554Z,72.64
2022-09-10T08:39:21.275Z,72.46
2022-09-10T08:41:32.338Z,72.49
2022-09-10T08:43:40.580Z,73.15
2022-09-10T08:45:50.463Z,72.46
2022-09-10T08:47:58.624Z,72.10
2022-09-10T08:50:06.127Z,72.37
2022-09-10T08:52:16.631Z,72.27
2022-09-10T08:54:23.856Z,72.23
2022-09-10T08:56:26.940Z,72.63
2022-09-10T08:58:38.512Z,73.01
2022-09-10T09:00:42.686Z,71.69
2022-09-10T09:02:54.090Z,71.41
2022-09-10T09:05:00.768Z,72.04
2022-09-10T09:07:09.560Z,71.63
2022-09-10T09:09:15.623Z,71.42
2022-09-10T09:11:25.959Z,71.48
2022-09-10T09:13:59.012Z,70.77
2022-09-10T09:16:12.853Z,70.11
2022-09-10T09:18:23.343Z,70.50
2022-09-10T09:20:41.406Z,70.54
2022-09-10T09:22:50.754Z,70.55
2022-09-10T09:24:56.386Z,70.08
2022-09-10T09:27:04.784Z,70.79
2022-09-10T09:29:12.675Z,71.60
2022-09-10T09:31:16.658Z,69.78
2022-09-10T09:33:21.403Z,70.78
2022-09-10T09:35:32.535Z,69.25
2022-09-10T09:37:41.976Z,69.66
2022-09-10T09:39:50.570Z,69.85
2022-09-10T09:42:01.097Z,69.00
2022-09-10T09:44:11.849Z,68.80
2022-09-10T09:46:15.332Z,68.76
2022-09-10T09:48:18.555Z,68.47
2022-09-10T09:50:20.417Z,68.95
2022-09-10T09:52:25.200Z,68.55
2022-09-10T09:55:12.709Z,68.52
2022-09-10T09:56:53.669Z,69.15
2022-09-10T09:58:55.194Z,68.54
2022-09-10T10:01:10.840Z,70.40
2022-09-10T10:03:17.892Z,69.67
2022-09-10T10:05:23.965Z,66.13
2022-09-10T10:07:29.491Z,66.83
2022-09-10T10:09:33.148Z,67.71
2022-09-10T10:11:52.248Z,68.38
2022-09-10T10:14:10.605Z,64.12
2022-09-10T10:16:17.704Z,67.21
2022-09-10T10:18:30.062Z,66.72
2022-09-10T10:20:38.878Z,64.02
2022-09-10T10:22:42.872Z,66.53
2022-09-10T10:24:46.142Z,65.26
2022-09-10T10:26:48.066Z,63.39
2022-09-10T10:28:52.399Z,67.72
2022-09-10T10:30:55.932Z,68.39
2022-09-10T10:32:59.030Z,68.39
2022-09-10T10:35:25.264Z,69.59
2022-09-10T10:37:37.291Z,70.07
2022-09-10T10:39:59.071Z,68.10
2022-09-10T10:42:09.304Z,66.01
2022-09-10T10:44:42.754Z,67.12
2022-09-10T10:46:53.022Z,67.66
2022-09-10T10:49:04.540Z,69.38
2022-09-10T10:51:15.316Z,67.75
2022-09-10T10:53:29.955Z,68.45
2022-09-10T10:55:39.834Z,66.85
2022-09-10T10:57:54.641Z,64.76
2022-09-10T11:00:02.578Z,67.15
2022-09-10T11:02:15.154Z,67.49
2022-09-10T11:04:27.944Z,64.74
2022-09-10T11:06:35.037Z,65.70
2022-09-10T11:08:41.281Z,69.16
2022-09-10T11:10:49.126Z,66.98
2022-09-10T11:13:00.244Z,65.09
2022-09-10T11:15:14.692Z,66.25
2022-09-10T11:17:21.455Z,65.57
2022-09-10T11:19:29.635Z,63.90
2022-09-10T11:21:37.244Z,64.72
2022-09-10T11:23:45.315Z,63.51
2022-09-10T11:25:55.251Z,65.89
2022-09-10T11:28:01.467Z,68.40
2022-09-10T11:30:06.433Z,68.10
2022-09-10T11:32:18.571Z,66.67
2022-09-10T11:34:28.069Z,65.24
2022-09-10T11:36:34.833Z,65.63
2022-09-10T11:38:47.363Z,64.92
2022-09-10T11:40:59.081Z,64.11
2022-09-10T11:43:05.609Z,64.92
2022-09-10T11:45:18.705Z,65.18
2022-09-10T11:47:26.703Z,63.95
2022-09-10T11:49:36.392Z,64.92
2022-09-10T11:51:39.886Z,66.99
2022-09-10T11:53:41.743Z,64.99
2022-09-10T11:56:05.713Z,64.92
2022-09-10T11:58:17.389Z,66.43
2022-09-10T12:00:20.165Z,64.66
2022-09-10T12:02:43.894Z,64.71
2022-09-10T12:04:55.809Z,64.79
2022-09-10T12:07:11.129Z,65.37
2022-09-10T12:09:17.933Z,64.29
2022-09-10T12:11:28.050Z,65.52
2022-09-10T12:13:30.209Z,64.71
2022-09-10T12:15:31.735Z,63.33
2022-09-10T12:17:37.612Z,65.79
2022-09-10T12:19:44.873Z,64.86
2022-09-10T12:21:50.790Z,64.35
2022-09-10T12:23:52.393Z,65.17
2022-09-10T12:25:59.323Z,65.25
2022-09-10T12:28:04.521Z,66.41
2022-09-10T12:30:39.364Z,65.64
2022-09-10T12:32:40.927Z,65.93
2022-09-10T12:34:42.489Z,66.96
2022-09-10T12:37:21.696Z,63.74
2022-09-10T12:39:24.920Z,62.77
2022-09-10T12:41:55.793Z,63.73
2022-09-10T12:43:59.521Z,62.20
2022-09-10T12:46:04.576Z,61.78
2022-09-10T12:48:11.978Z,61.45
2022-09-10T12:50:31.011Z,62.46
2022-09-10T12:52:44.866Z,63.08
2022-09-10T12:54:55.100Z,62.80
2022-09-10T12:57:23.733Z,61.04
2022-09-10T13:00:02.141Z,60.82
2022-09-10T13:02:18.722Z,60.88
2022-09-10T13:04:27.412Z,61.02
2022-09-10T13:06:38.640Z,60.48
2022-09-10T13:08:43.603Z,62.32
2022-09-10T13:10:48.371Z,61.92
2022-09-10T13:12:54.050Z,60.42
2022-09-10T13:14:57.660Z,59.25
2022-09-10T13:16:59.258Z,59.14
2022-09-10T13:19:49.352Z,58.96
2022-09-10T13:21:52.713Z,59.40
2022-09-10T13:23:55.244Z,59.40
2022-09-10T13:26:48.056Z,58.46
2022-09-10T13:29:04.041Z,58.25
2022-09-10T13:31:13.271Z,58.72
2022-09-10T13:33:21.330Z,58.45
2022-09-10T13:36:04.344Z,58.31
2022-09-10T13:38:29.183Z,59.32
2022-09-10T13:40:51.380Z,56.61
2022-09-10T13:43:10.570Z,55.88
2022-09-10T13:45:21.781Z,56.55
2022-09-10T13:47:31.777Z,57.16
2022-09-10T13:49:42.466Z,57.19
2022-09-10T13:51:50.742Z,56.33
2022-09-10T13:53:53.571Z,56.51
2022-09-10T13:55:58.450Z,58.73
2022-09-10T13:58:08.134Z,57.28
2022-09-10T14:00:20.453Z,57.53
2022-09-10T14:02:41.496Z,55.24
2022-09-10T14:04:45.187Z,56.84
2022-09-10T14:06:46.889Z,56.97
2022-09-10T14:08:52.860Z,55.88
2022-09-10T14:10:59.272Z,58.06
2022-09-10T14:13:01.420Z,56.24
2022-09-10T14:15:14.215Z,56.25
2022-09-10T14:17:22.800Z,56.10
2022-09-10T14:19:30.666Z,56.56
2022-09-10T14:21:33.055Z,58.42
2022-09-10T14:23:35.084Z,57.53
2022-09-10T14:25:38.950Z,58.59
2022-09-10T14:27:41.249Z,57.48
2022-09-10T14:29:42.992Z,56.13
2022-09-10T14:31:44.507Z,58.96
2022-09-10T14:33:46.200Z,57.45
2022-09-10T14:35:49.531Z,58.19
2022-09-10T14:37:51.085Z,58.22
2022-09-10T14:39:52.755Z,58.26
2022-09-10T14:42:22.664Z,57.68
2022-09-10T14:44:28.278Z,57.93
2022-09-10T14:46:48.467Z,56.19
2022-09-10T14:49:03.361Z,55.70
2022-09-10T14:51:18.078Z,56.47
2022-09-10T14:53:19.563Z,56.71
2022-09-10T14:55:21.727Z,56.58
2022-09-10T14:57:23.416Z,56.22
2022-09-10T14:59:29.465Z,59.18
2022-09-10T15:01:31.252Z,58.70
2022-09-10T15:03:37.581Z,60.54
2022-09-10T15:05:39.322Z,60.70
2022-09-10T15:07:42.262Z,60.20
2022-09-10T15:09:43.987Z,58.60
2022-09-10T15:11:51.505Z,58.31
2022-09-10T15:13:53.985Z,55.67
2022-09-10T15:15:55.612Z,57.36
2022-09-10T15:17:57.094Z,55.89
2022-09-10T15:19:58.991Z,56.75
2022-09-10T15:22:00.514Z,57.43
2022-09-10T15:24:03.892Z,56.41
2022-09-10T15:26:06.917Z,56.66
2022-09-10T15:28:08.454Z,55.70
2022-09-10T15:30:10.540Z,55.79
2022-09-10T15:32:12.106Z,55.24
2022-09-10T15:34:13.642Z,55.31
2022-09-10T15:36:15.203Z,55.89
2022-09-10T15:38:17.703Z,55.23
2022-09-10T15:40:20.711Z,55.70
2022-09-10T15:42:22.272Z,55.25
2022-09-10T15:44:25.173Z,54.81
2022-09-10T15:46:26.944Z,55.20
2022-09-10T15:48:30.292Z,55.03
2022-09-10T15:50:32.204Z,54.45
2022-09-10T15:52:33.894Z,54.79
2022-09-10T15:54:35.514Z,54.49
2022-09-10T15:56:39.499Z,55.18
2022-09-10T15:58:42.001Z,54.32
2022-09-10T16:00:43.808Z,54.72
2022-09-10T16:02:52.802Z,53.88
2022-09-10T16:04:54.521Z,54.06
2022-09-10T16:06:56.046Z,53.68
2022-09-10T16:08:59.942Z,54.72
2022-09-10T16:11:07.116Z,54.90
2022-09-10T16:13:10.058Z,55.58
2022-09-10T16:15:11.636Z,55.08
2022-09-10T16:17:13.331Z,54.74
2022-09-10T16:19:14.976Z,56.23
2022-09-10T16:21:18.860Z,55.18
2022-09-10T16:23:20.555Z,56.00
2022-09-10T16:25:22.086Z,55.25
2022-09-10T16:27:24.042Z,56.33
2022-09-10T16:29:27.204Z,55.41
2022-09-10T16:31:30.763Z,55.47
2022-09-10T16:33:32.347Z,57.14
2022-09-10T16:35:34.682Z,56.85
2022-09-10T16:37:36.222Z,56.30
2022-09-10T16:39:37.776Z,56.39
2022-09-10T16:41:41.189Z,57.13
2022-09-10T16:43:42.812Z,57.76
2022-09-10T16:45:50.737Z,56.95
2022-09-10T16:47:53.541Z,57.31
2022-09-10T16:49:55.042Z,57.56
2022-09-10T16:51:56.898Z,57.78
2022-09-10T16:54:00.483Z,58.42
2022-09-10T16:56:04.781Z,58.00
2022-09-10T16:58:06.294Z,58.31
2022-09-10T17:00:08.862Z,59.21
2022-09-10T17:02:11.759Z,58.45
2022-09-10T17:04:18.529Z,58.43
2022-09-10T17:06:22.438Z,59.86
2022-09-10T17:08:24.213Z,60.64
2022-09-10T17:10:25.748Z,59.99
2022-09-10T17:12:27.414Z,60.74
2022-09-10T17:14:28.927Z,60.01
2022-09-10T17:16:32.537Z,60.33
2022-09-10T17:18:35.524Z,59.96
2022-09-10T17:20:37.471Z,60.06
2022-09-10T17:22:39.293Z,59.47
2022-09-10T17:24:40.849Z,59.80
2022-09-10T17:26:42.529Z,60.13
2022-09-10T17:28:44.109Z,59.67
2022-09-10T17:30:45.664Z,59.81
2022-09-10T17:32:47.384Z,59.76
2022-09-10T17:34:50.363Z,60.16
2022-09-10T17:36:52.403Z,59.32
2022-09-10T17:40:58.917Z,59.76
2022-09-10T17:43:00.428Z,59.89
2022-09-10T17:45:01.958Z,59.67
2022-09-10T17:47:03.672Z,59.96
2022-09-10T17:49:06.009Z,60.01
2022-09-10T17:51:12.815Z,59.93
2022-09-10T17:53:15.136Z,60.49
2022-09-10T17:55:17.022Z,60.68
2022-09-10T17:57:18.587Z,61.26
2022-09-10T17:59:20.206Z,63.67
2022-09-10T18:01:23.858Z,63.57
2022-09-10T18:03:25.501Z,64.21
2022-09-10T18:05:27.132Z,63.93
2022-09-10T18:07:30.085Z,65.25
2022-09-10T18:09:31.753Z,64.58
2022-09-10T18:11:38.124Z,66.47
2022-09-10T18:13:41.414Z,65.36
2022-09-10T18:15:43.043Z,66.75
2022-09-10T18:17:44.652Z,66.53
2022-09-10T18:19:46.158Z,66.61
2022-09-10T18:21:48.433Z,67.68
2022-09-10T18:23:52.677Z,65.34
2022-09-10T18:25:54.179Z,66.79
2022-09-10T18:27:56.075Z,66.22
2022-09-10T18:29:57.838Z,66.29
2022-09-10T18:31:59.888Z,66.82
2022-09-10T18:34:02.262Z,66.93
2022-09-10T18:36:11.145Z,66.67
2022-09-10T18:38:12.662Z,65.71
2022-09-10T18:40:15.939Z,67.77
2022-09-10T18:42:17.767Z,66.42
2022-09-10T18:44:21.909Z,66.75
2022-09-10T18:46:24.641Z,66.75
2022-09-10T18:48:26.356Z,68.42
2022-09-10T18:50:28.014Z,67.74
2022-09-10T18:52:29.606Z,67.75
2022-09-10T18:54:31.101Z,67.00
2022-09-10T18:56:34.443Z,66.66
2022-09-10T18:58:35.937Z,67.75
2022-09-10T19:00:37.489Z,68.56
2022-09-10T19:02:39.248Z,66.80
2022-09-10T19:05:00.385Z,68.07
2022-09-10T19:07:02.996Z,68.53
2022-09-10T19:09:07.486Z,69.66
2022-09-10T19:11:08.994Z,67.93
2022-09-10T19:13:12.065Z,67.93
2022-09-10T19:15:13.770Z,67.90
2022-09-10T19:17:15.395Z,69.15
2022-09-10T19:19:18.883Z,68.81
2022-09-10T19:21:21.430Z,67.74
2022-09-10T19:23:23.670Z,68.03
2022-09-10T19:25:25.201Z,68.32
2022-09-10T19:27:26.842Z,68.17
2022-09-10T19:29:29.788Z,67.86
2022-09-10T19:31:33.756Z,67.81
2022-09-10T19:33:35.566Z,68.21
2022-09-10T19:35:37.095Z,68.72
2022-09-10T19:37:38.804Z,68.39
2022-09-10T19:39:40.498Z,68.77
2022-09-10T19:41:43.730Z,69.14
2022-09-10T19:43:46.934Z,68.59
2022-09-10T19:45:54.576Z,68.70
2022-09-10T19:47:56.143Z,69.17
2022-09-10T19:49:57.663Z,69.25
2022-09-10T19:51:59.547Z,69.34
2022-09-10T19:54:01.437Z,69.02
2022-09-10T19:56:04.764Z,69.12
2022-09-10T19:58:06.778Z,69.31
2022-09-10T20:00:17.194Z,69.24
2022-09-10T20:02:32.909Z,69.70
2022-09-10T20:04:35.202Z,69.37
2022-09-10T20:06:37.384Z,69.80
2022-09-10T20:08:42.000Z,69.74
2022-09-10T20:10:49.453Z,69.60
2022-09-10T20:12:50.959Z,69.67
2022-09-10T20:14:52.587Z,69.65
2022-09-10T20:16:54.193Z,69.78
2022-09-10T20:18:57.086Z,69.30
2022-09-10T20:21:08.611Z,69.54
2022-09-10T20:23:10.194Z,69.10
2022-09-10T20:25:11.828Z,69.33
2022-09-10T20:27:21.081Z,69.17
2022-09-10T20:29:22.733Z,69.42
2022-09-10T20:31:26.156Z,69.49
2022-09-10T20:33:27.819Z,69.56
2022-09-10T20:35:30.887Z,68.92
2022-09-10T20:37:32.456Z,69.41
2022-09-10T20:39:34.134Z,69.50
2022-09-10T20:41:35.701Z,69.55
2022-09-10T20:43:37.672Z,69.32
2022-09-10T20:45:42.570Z,73.02
2022-09-10T20:47:44.204Z,75.39
2022-09-10T20:49:45.719Z,74.72
2022-09-10T20:51:48.664Z,74.89
2022-09-10T20:53:50.220Z,74.57
2022-09-10T20:55:51.904Z,74.58
2022-09-10T20:57:53.492Z,75.09
2022-09-10T20:59:55.035Z,74.70
2022-09-10T21:01:56.897Z,76.28
2022-09-10T21:04:00.373Z,73.81
2022-09-10T21:06:02.003Z,75.01
2022-09-10T21:08:05.624Z,75.69
2022-09-10T21:10:08.050Z,77.86
2022-09-10T21:12:09.603Z,77.72
2022-09-10T21:14:11.784Z,76.99
2022-09-10T21:16:15.256Z,74.19
2022-09-10T21:18:17.141Z,74.45
2022-09-10T21:20:18.755Z,74.22
2022-09-10T21:22:20.316Z,74.38
2022-09-10T21:24:23.189Z,73.14
2022-09-10T21:26:26.463Z,73.92
2022-09-10T21:28:28.006Z,73.37
2022-09-10T21:30:29.508Z,73.18
2022-09-10T21:32:31.042Z,73.73
2022-09-10T21:34:32.760Z,73.67
2022-09-10T21:36:36.008Z,73.67
2022-09-10T21:38:38.262Z,73.40
2022-09-10T21:40:41.217Z,71.77
2022-09-10T21:42:43.959Z,72.26
2022-09-10T21:44:45.485Z,70.88
2022-09-10T21:46:48.260Z,71.18
2022-09-10T21:48:50.160Z,70.91
2022-09-10T21:50:57.456Z,70.57
2022-09-10T21:52:59.036Z,71.31
2022-09-10T21:55:00.514Z,71.54
2022-09-10T21:57:03.749Z,70.76
2022-09-10T21:59:05.374Z,72.13
2022-09-10T22:01:11.242Z,71.23
2022-09-10T22:03:12.737Z,71.37
2022-09-10T22:05:14.524Z,72.05
2022-09-10T22:07:16.077Z,70.33
2022-09-10T22:09:17.579Z,71.45
2022-09-10T22:11:20.868Z,71.02
2022-09-10T22:13:23.898Z,70.33
2022-09-10T22:15:25.488Z,69.93
2022-09-10T22:17:27.190Z,68.59
2022-09-10T22:19:28.882Z,68.77
2022-09-10T22:21:30.481Z,71.38
2022-09-10T22:23:34.127Z,69.44
2022-09-10T22:25:35.600Z,69.29
2022-09-10T22:27:37.117Z,70.37
2022-09-10T22:29:40.072Z,69.05
2022-09-10T22:31:41.607Z,69.28
2022-09-10T22:33:45.400Z,69.07
2022-09-10T22:35:46.946Z,70.26
2022-09-10T22:37:48.439Z,69.05
2022-09-10T22:39:49.968Z,69.02
2022-09-10T22:41:51.595Z,69.65
2022-09-10T22:43:53.273Z,69.53
2022-09-10T22:45:56.123Z,71.95
2022-09-10T22:47:57.697Z,71.11
2022-09-10T22:49:59.227Z,69.21
2022-09-10T22:52:00.823Z,69.60
2022-09-10T22:54:03.703Z,69.52
2022-09-10T22:56:05.629Z,69.54
2022-09-10T22:58:07.140Z,69.62
2022-09-10T23:00:09.733Z,69.81
2022-09-10T23:02:12.632Z,70.10
2022-09-10T23:04:14.582Z,69.47
2022-09-10T23:06:18.040Z,70.29
2022-09-10T23:08:19.517Z,71.42
2022-09-10T23:10:20.986Z,70.22
2022-09-10T23:12:22.500Z,71.13
2022-09-10T23:14:23.989Z,71.24
2022-09-10T23:16:27.076Z,69.93
2022-09-10T23:18:29.954Z,68.92
2022-09-10T23:20:32.516Z,69.92
2022-09-10T23:22:34.059Z,69.87
2022-09-10T23:24:35.585Z,71.04
2022-09-10T23:26:37.104Z,72.88
2022-09-10T23:28:39.291Z,71.30
2022-09-10T23:30:40.892Z,71.84
2022-09-10T23:32:42.373Z,72.12
2022-09-10T23:34:45.236Z,72.00
2022-09-10T23:36:48.191Z,72.65
2022-09-10T23:38:50.141Z,71.42
2022-09-10T23:40:51.719Z,70.74
2022-09-10T23:42:53.240Z,70.97
2022-09-10T23:44:54.739Z,70.42
2022-09-10T23:46:56.329Z,70.26
2022-09-10T23:48:57.926Z,71.22
2022-09-10T23:51:00.810Z,70.47
2022-09-10T23:53:02.343Z,70.48
2022-09-10T23:55:04.225Z,72.13
2022-09-10T23:57:05.829Z,70.86
2022-09-10T23:59:07.927Z,71.31
